sensor_id;sensor_type;location;lat;lon;timestamp;P1;durP1;ratioP1;P2;durP2;ratioP2
77222;SDS011;66218;48.928;9.140;2023-05-10T00:01:26;2.10;;;0.50;;
77222;SDS011;66218;48.928;9.140;2023-05-10T00:03:51;0.52;;;0.10;;
77222;SDS011;66218;48.928;9.140;2023-05-10T00:06:16;1.52;;;0.63;;
77222;SDS011;66218;48.928;9.140;2023-05-10T00:08:41;0.25;;;0.10;;
77222;SDS011;66218;48.928;9.140;2023-05-10T00:11:07;0.10;;;0.10;;
77222;SDS011;66218;48.928;9.140;2023-05-10T00:13:32;0.75;;;0.20;;
77222;SDS011;66218;48.928;9.140;2023-05-10T00:15:58;0.25;;;0.10;;
77222;SDS011;66218;48.928;9.140;2023-05-10T00:18:23;0.05;;;0.05;;
77222;SDS011;66218;48.928;9.140;2023-05-10T00:20:48;0.80;;;0.30;;
77222;SDS011;66218;48.928;9.140;2023-05-10T00:23:14;0.10;;;0.10;;
77222;SDS011;66218;48.928;9.140;2023-05-10T00:25:39;0.00;;;0.00;;
77222;SDS011;66218;48.928;9.140;2023-05-10T00:28:04;0.00;;;0.00;;
77222;SDS011;66218;48.928;9.140;2023-05-10T00:30:30;0.20;;;0.10;;
77222;SDS011;66218;48.928;9.140;2023-05-10T00:32:55;0.22;;;0.08;;
77222;SDS011;66218;48.928;9.140;2023-05-10T00:35:20;0.32;;;0.15;;
77222;SDS011;66218;48.928;9.140;2023-05-10T00:37:46;1.35;;;0.15;;
77222;SDS011;66218;48.928;9.140;2023-05-10T00:40:12;0.17;;;0.00;;
77222;SDS011;66218;48.928;9.140;2023-05-10T00:42:37;0.10;;;0.10;;
77222;SDS011;66218;48.928;9.140;2023-05-10T00:45:03;0.00;;;0.00;;
77222;SDS011;66218;48.928;9.140;2023-05-10T00:47:28;0.13;;;0.10;;
77222;SDS011;66218;48.928;9.140;2023-05-10T00:49:54;0.20;;;0.20;;
77222;SDS011;66218;48.928;9.140;2023-05-10T00:52:20;0.35;;;0.30;;
77222;SDS011;66218;48.928;9.140;2023-05-10T00:54:48;0.82;;;0.25;;
77222;SDS011;66218;48.928;9.140;2023-05-10T00:57:16;1.20;;;0.25;;
77222;SDS011;66218;48.928;9.140;2023-05-10T00:59:41;0.43;;;0.25;;
77222;SDS011;66218;48.928;9.140;2023-05-10T01:02:07;0.35;;;0.20;;
77222;SDS011;66218;48.928;9.140;2023-05-10T01:04:32;0.40;;;0.20;;
77222;SDS011;66218;48.928;9.140;2023-05-10T01:06:58;1.20;;;0.40;;
77222;SDS011;66218;48.928;9.140;2023-05-10T01:09:23;0.90;;;0.13;;
77222;SDS011;66218;48.928;9.140;2023-05-10T01:11:51;0.40;;;0.20;;
77222;SDS011;66218;48.928;9.140;2023-05-10T01:14:17;0.35;;;0.30;;
77222;SDS011;66218;48.928;9.140;2023-05-10T01:16:44;0.10;;;0.10;;
77222;SDS011;66218;48.928;9.140;2023-05-10T01:19:19;0.13;;;0.13;;
77222;SDS011;66218;48.928;9.140;2023-05-10T01:39:11;0.57;;;0.20;;
77222;SDS011;66218;48.928;9.140;2023-05-10T01:43:37;0.60;;;0.30;;
77222;SDS011;66218;48.928;9.140;2023-05-10T01:46:24;0.80;;;0.47;;
77222;SDS011;66218;48.928;9.140;2023-05-10T01:48:59;0.30;;;0.20;;
77222;SDS011;66218;48.928;9.140;2023-05-10T01:51:27;1.08;;;0.50;;
77222;SDS011;66218;48.928;9.140;2023-05-10T01:53:59;0.77;;;0.38;;
77222;SDS011;66218;48.928;9.140;2023-05-10T01:56:26;0.32;;;0.20;;
77222;SDS011;66218;48.928;9.140;2023-05-10T01:58:55;0.47;;;0.30;;
77222;SDS011;66218;48.928;9.140;2023-05-10T02:01:22;0.70;;;0.30;;
77222;SDS011;66218;48.928;9.140;2023-05-10T02:03:51;0.95;;;0.35;;
77222;SDS011;66218;48.928;9.140;2023-05-10T02:08:45;0.60;;;0.20;;
77222;SDS011;66218;48.928;9.140;2023-05-10T02:11:12;0.15;;;0.15;;
77222;SDS011;66218;48.928;9.140;2023-05-10T02:13:38;0.52;;;0.35;;
77222;SDS011;66218;48.928;9.140;2023-05-10T02:16:05;0.10;;;0.10;;
77222;SDS011;66218;48.928;9.140;2023-05-10T02:18:31;0.70;;;0.28;;
77222;SDS011;66218;48.928;9.140;2023-05-10T02:20:58;0.95;;;0.50;;
77222;SDS011;66218;48.928;9.140;2023-05-10T02:25:51;0.52;;;0.25;;
77222;SDS011;66218;48.928;9.140;2023-05-10T02:28:18;2.13;;;0.70;;
77222;SDS011;66218;48.928;9.140;2023-05-10T02:30:44;0.95;;;0.25;;
77222;SDS011;66218;48.928;9.140;2023-05-10T02:33:10;1.00;;;0.40;;
77222;SDS011;66218;48.928;9.140;2023-05-10T02:35:36;1.55;;;0.22;;
77222;SDS011;66218;48.928;9.140;2023-05-10T02:40:29;0.45;;;0.30;;
77222;SDS011;66218;48.928;9.140;2023-05-10T02:42:56;0.47;;;0.25;;
77222;SDS011;66218;48.928;9.140;2023-05-10T02:45:24;1.02;;;0.60;;
77222;SDS011;66218;48.928;9.140;2023-05-10T02:47:53;0.75;;;0.43;;
77222;SDS011;66218;48.928;9.140;2023-05-10T02:50:19;1.17;;;0.52;;
77222;SDS011;66218;48.928;9.140;2023-05-10T02:52:49;2.30;;;0.50;;
77222;SDS011;66218;48.928;9.140;2023-05-10T02:55:19;1.25;;;0.40;;
77222;SDS011;66218;48.928;9.140;2023-05-10T02:57:50;0.65;;;0.47;;
77222;SDS011;66218;48.928;9.140;2023-05-10T03:00:20;0.88;;;0.50;;
77222;SDS011;66218;48.928;9.140;2023-05-10T03:02:45;0.52;;;0.47;;
77222;SDS011;66218;48.928;9.140;2023-05-10T03:05:11;0.80;;;0.60;;
77222;SDS011;66218;48.928;9.140;2023-05-10T03:07:36;3.30;;;0.45;;
77222;SDS011;66218;48.928;9.140;2023-05-10T03:10:01;1.55;;;0.60;;
77222;SDS011;66218;48.928;9.140;2023-05-10T03:18:04;1.75;;;0.73;;
77222;SDS011;66218;48.928;9.140;2023-05-10T03:21:03;1.90;;;0.50;;
77222;SDS011;66218;48.928;9.140;2023-05-10T03:23:34;1.35;;;0.60;;
77222;SDS011;66218;48.928;9.140;2023-05-10T03:26:05;1.35;;;0.75;;
77222;SDS011;66218;48.928;9.140;2023-05-10T03:28:32;2.55;;;1.00;;
77222;SDS011;66218;48.928;9.140;2023-05-10T03:30:59;0.88;;;0.43;;
77222;SDS011;66218;48.928;9.140;2023-05-10T03:33:25;1.48;;;0.80;;
77222;SDS011;66218;48.928;9.140;2023-05-10T03:35:50;1.33;;;0.80;;
77222;SDS011;66218;48.928;9.140;2023-05-10T03:38:16;1.50;;;0.80;;
77222;SDS011;66218;48.928;9.140;2023-05-10T03:40:41;2.17;;;1.05;;
77222;SDS011;66218;48.928;9.140;2023-05-10T03:43:06;1.83;;;1.10;;
77222;SDS011;66218;48.928;9.140;2023-05-10T03:45:31;2.33;;;1.25;;
77222;SDS011;66218;48.928;9.140;2023-05-10T03:47:57;3.97;;;1.33;;
77222;SDS011;66218;48.928;9.140;2023-05-10T03:50:23;1.33;;;0.75;;
77222;SDS011;66218;48.928;9.140;2023-05-10T03:52:48;1.67;;;0.88;;
77222;SDS011;66218;48.928;9.140;2023-05-10T03:55:14;1.33;;;0.70;;
77222;SDS011;66218;48.928;9.140;2023-05-10T03:57:39;2.28;;;1.05;;
77222;SDS011;66218;48.928;9.140;2023-05-10T04:00:05;1.70;;;0.70;;
77222;SDS011;66218;48.928;9.140;2023-05-10T04:02:30;2.90;;;0.95;;
77222;SDS011;66218;48.928;9.140;2023-05-10T04:04:56;1.80;;;0.85;;
77222;SDS011;66218;48.928;9.140;2023-05-10T04:07:21;4.18;;;0.70;;
77222;SDS011;66218;48.928;9.140;2023-05-10T04:09:47;2.83;;;1.02;;
77222;SDS011;66218;48.928;9.140;2023-05-10T04:12:12;1.73;;;0.90;;
77222;SDS011;66218;48.928;9.140;2023-05-10T04:14:37;1.88;;;0.85;;
77222;SDS011;66218;48.928;9.140;2023-05-10T04:17:03;2.05;;;0.75;;
77222;SDS011;66218;48.928;9.140;2023-05-10T04:19:28;1.25;;;0.75;;
77222;SDS011;66218;48.928;9.140;2023-05-10T04:21:55;1.55;;;0.80;;
77222;SDS011;66218;48.928;9.140;2023-05-10T04:24:20;1.52;;;0.65;;
77222;SDS011;66218;48.928;9.140;2023-05-10T04:26:45;1.27;;;0.80;;
77222;SDS011;66218;48.928;9.140;2023-05-10T04:29:11;2.63;;;0.82;;
77222;SDS011;66218;48.928;9.140;2023-05-10T04:31:36;1.33;;;0.80;;
77222;SDS011;66218;48.928;9.140;2023-05-10T04:34:01;3.13;;;0.63;;
77222;SDS011;66218;48.928;9.140;2023-05-10T04:36:27;0.88;;;0.38;;
77222;SDS011;66218;48.928;9.140;2023-05-10T04:38:52;0.85;;;0.68;;
77222;SDS011;66218;48.928;9.140;2023-05-10T04:41:18;1.10;;;0.50;;
77222;SDS011;66218;48.928;9.140;2023-05-10T04:43:43;1.00;;;0.60;;
77222;SDS011;66218;48.928;9.140;2023-05-10T04:46:08;0.95;;;0.55;;
77222;SDS011;66218;48.928;9.140;2023-05-10T04:48:34;0.95;;;0.75;;
77222;SDS011;66218;48.928;9.140;2023-05-10T04:50:59;1.20;;;0.60;;
77222;SDS011;66218;48.928;9.140;2023-05-10T04:53:24;1.42;;;0.73;;
77222;SDS011;66218;48.928;9.140;2023-05-10T04:55:50;1.00;;;0.88;;
77222;SDS011;66218;48.928;9.140;2023-05-10T04:58:15;2.33;;;0.60;;
77222;SDS011;66218;48.928;9.140;2023-05-10T05:00:41;2.17;;;0.80;;
77222;SDS011;66218;48.928;9.140;2023-05-10T05:03:07;1.88;;;0.70;;
77222;SDS011;66218;48.928;9.140;2023-05-10T05:05:32;1.52;;;0.90;;
77222;SDS011;66218;48.928;9.140;2023-05-10T05:07:57;1.00;;;0.60;;
77222;SDS011;66218;48.928;9.140;2023-05-10T05:10:23;1.45;;;0.68;;
77222;SDS011;66218;48.928;9.140;2023-05-10T05:12:48;3.60;;;1.25;;
77222;SDS011;66218;48.928;9.140;2023-05-10T05:15:13;1.70;;;0.82;;
77222;SDS011;66218;48.928;9.140;2023-05-10T05:20:05;1.20;;;0.80;;
77222;SDS011;66218;48.928;9.140;2023-05-10T05:22:31;1.10;;;0.80;;
77222;SDS011;66218;48.928;9.140;2023-05-10T05:24:56;2.00;;;1.00;;
77222;SDS011;66218;48.928;9.140;2023-05-10T05:27:23;1.30;;;0.88;;
77222;SDS011;66218;48.928;9.140;2023-05-10T05:29:52;1.08;;;0.73;;
77222;SDS011;66218;48.928;9.140;2023-05-10T05:32:17;17.02;;;1.35;;
77222;SDS011;66218;48.928;9.140;2023-05-10T05:34:46;1.70;;;1.00;;
77222;SDS011;66218;48.928;9.140;2023-05-10T05:37:15;1.67;;;0.82;;
77222;SDS011;66218;48.928;9.140;2023-05-10T05:39:46;1.45;;;0.70;;
77222;SDS011;66218;48.928;9.140;2023-05-10T05:42:12;4.18;;;1.20;;
77222;SDS011;66218;48.928;9.140;2023-05-10T05:48:26;2.38;;;1.33;;
77222;SDS011;66218;48.928;9.140;2023-05-10T05:50:56;1.42;;;0.77;;
77222;SDS011;66218;48.928;9.140;2023-05-10T05:53:22;1.17;;;0.57;;
77222;SDS011;66218;48.928;9.140;2023-05-10T05:55:54;4.78;;;0.80;;
77222;SDS011;66218;48.928;9.140;2023-05-10T05:58:24;1.50;;;0.98;;
77222;SDS011;66218;48.928;9.140;2023-05-10T06:00:50;1.15;;;0.70;;
77222;SDS011;66218;48.928;9.140;2023-05-10T06:03:17;1.90;;;1.00;;
77222;SDS011;66218;48.928;9.140;2023-05-10T06:05:42;1.33;;;0.75;;
77222;SDS011;66218;48.928;9.140;2023-05-10T06:08:08;5.90;;;1.20;;
77222;SDS011;66218;48.928;9.140;2023-05-10T06:10:33;1.65;;;1.00;;
77222;SDS011;66218;48.928;9.140;2023-05-10T06:12:58;3.53;;;1.00;;
77222;SDS011;66218;48.928;9.140;2023-05-10T06:15:24;0.90;;;0.60;;
77222;SDS011;66218;48.928;9.140;2023-05-10T06:17:50;1.77;;;0.95;;
77222;SDS011;66218;48.928;9.140;2023-05-10T06:20:15;2.45;;;1.05;;
77222;SDS011;66218;48.928;9.140;2023-05-10T06:22:41;1.80;;;0.80;;
77222;SDS011;66218;48.928;9.140;2023-05-10T06:25:07;1.67;;;1.08;;
77222;SDS011;66218;48.928;9.140;2023-05-10T06:27:33;1.10;;;1.00;;
77222;SDS011;66218;48.928;9.140;2023-05-10T06:29:58;8.55;;;1.23;;
77222;SDS011;66218;48.928;9.140;2023-05-10T06:32:24;1.95;;;0.88;;
77222;SDS011;66218;48.928;9.140;2023-05-10T06:34:49;1.90;;;1.13;;
77222;SDS011;66218;48.928;9.140;2023-05-10T06:37:14;1.95;;;0.95;;
77222;SDS011;66218;48.928;9.140;2023-05-10T06:39:40;1.65;;;1.08;;
77222;SDS011;66218;48.928;9.140;2023-05-10T06:42:05;5.80;;;0.98;;
77222;SDS011;66218;48.928;9.140;2023-05-10T06:44:30;0.73;;;0.65;;
77222;SDS011;66218;48.928;9.140;2023-05-10T06:46:56;1.30;;;0.68;;
77222;SDS011;66218;48.928;9.140;2023-05-10T06:49:21;0.77;;;0.60;;
77222;SDS011;66218;48.928;9.140;2023-05-10T06:51:47;3.55;;;1.15;;
77222;SDS011;66218;48.928;9.140;2023-05-10T06:54:13;3.33;;;0.60;;
77222;SDS011;66218;48.928;9.140;2023-05-10T06:56:38;0.95;;;0.57;;
77222;SDS011;66218;48.928;9.140;2023-05-10T06:59:03;1.10;;;0.70;;
77222;SDS011;66218;48.928;9.140;2023-05-10T07:01:29;2.20;;;0.80;;
77222;SDS011;66218;48.928;9.140;2023-05-10T07:03:54;0.57;;;0.57;;
77222;SDS011;66218;48.928;9.140;2023-05-10T07:06:19;1.27;;;0.63;;
77222;SDS011;66218;48.928;9.140;2023-05-10T07:08:45;2.50;;;0.50;;
77222;SDS011;66218;48.928;9.140;2023-05-10T07:11:10;0.80;;;0.40;;
77222;SDS011;66218;48.928;9.140;2023-05-10T07:13:35;2.53;;;0.57;;
77222;SDS011;66218;48.928;9.140;2023-05-10T07:16:01;1.02;;;0.52;;
77222;SDS011;66218;48.928;9.140;2023-05-10T07:18:27;1.88;;;0.65;;
77222;SDS011;66218;48.928;9.140;2023-05-10T07:20:52;2.53;;;0.80;;
77222;SDS011;66218;48.928;9.140;2023-05-10T07:23:18;1.58;;;0.60;;
77222;SDS011;66218;48.928;9.140;2023-05-10T07:25:47;1.08;;;0.60;;
77222;SDS011;66218;48.928;9.140;2023-05-10T07:28:13;0.40;;;0.20;;
77222;SDS011;66218;48.928;9.140;2023-05-10T07:33:05;1.92;;;0.43;;
77222;SDS011;66218;48.928;9.140;2023-05-10T07:35:30;0.47;;;0.40;;
77222;SDS011;66218;48.928;9.140;2023-05-10T07:37:55;0.90;;;0.43;;
77222;SDS011;66218;48.928;9.140;2023-05-10T07:40:21;13.05;;;1.05;;
77222;SDS011;66218;48.928;9.140;2023-05-10T07:42:46;0.63;;;0.22;;
77222;SDS011;66218;48.928;9.140;2023-05-10T07:45:11;0.85;;;0.32;;
77222;SDS011;66218;48.928;9.140;2023-05-10T07:47:37;0.77;;;0.30;;
77222;SDS011;66218;48.928;9.140;2023-05-10T07:50:02;1.15;;;0.40;;
77222;SDS011;66218;48.928;9.140;2023-05-10T07:52:28;0.55;;;0.35;;
77222;SDS011;66218;48.928;9.140;2023-05-10T07:54:53;0.80;;;0.38;;
77222;SDS011;66218;48.928;9.140;2023-05-10T07:57:19;0.98;;;0.30;;
77222;SDS011;66218;48.928;9.140;2023-05-10T07:59:44;0.95;;;0.47;;
77222;SDS011;66218;48.928;9.140;2023-05-10T08:02:10;0.25;;;0.20;;
77222;SDS011;66218;48.928;9.140;2023-05-10T08:04:35;0.60;;;0.22;;
77222;SDS011;66218;48.928;9.140;2023-05-10T08:07:01;1.25;;;0.20;;
77222;SDS011;66218;48.928;9.140;2023-05-10T08:09:26;1.05;;;0.40;;
77222;SDS011;66218;48.928;9.140;2023-05-10T08:11:51;0.82;;;0.20;;
77222;SDS011;66218;48.928;9.140;2023-05-10T08:14:17;0.28;;;0.20;;
77222;SDS011;66218;48.928;9.140;2023-05-10T08:16:42;0.20;;;0.13;;
77222;SDS011;66218;48.928;9.140;2023-05-10T08:19:07;0.82;;;0.30;;
77222;SDS011;66218;48.928;9.140;2023-05-10T08:21:33;0.52;;;0.03;;
77222;SDS011;66218;48.928;9.140;2023-05-10T08:24:01;0.68;;;0.40;;
77222;SDS011;66218;48.928;9.140;2023-05-10T08:26:27;0.20;;;0.15;;
77222;SDS011;66218;48.928;9.140;2023-05-10T08:28:52;0.30;;;0.10;;
77222;SDS011;66218;48.928;9.140;2023-05-10T08:31:17;1.75;;;0.40;;
77222;SDS011;66218;48.928;9.140;2023-05-10T08:33:43;0.60;;;0.40;;
77222;SDS011;66218;48.928;9.140;2023-05-10T08:36:12;0.95;;;0.20;;
77222;SDS011;66218;48.928;9.140;2023-05-10T08:38:39;0.32;;;0.20;;
77222;SDS011;66218;48.928;9.140;2023-05-10T08:41:04;0.22;;;0.20;;
77222;SDS011;66218;48.928;9.140;2023-05-10T08:43:30;0.28;;;0.10;;
77222;SDS011;66218;48.928;9.140;2023-05-10T08:45:56;0.40;;;0.13;;
77222;SDS011;66218;48.928;9.140;2023-05-10T08:48:27;0.25;;;0.20;;
77222;SDS011;66218;48.928;9.140;2023-05-10T08:50:54;0.30;;;0.20;;
77222;SDS011;66218;48.928;9.140;2023-05-10T08:53:25;1.45;;;0.28;;
77222;SDS011;66218;48.928;9.140;2023-05-10T08:55:52;0.80;;;0.25;;
77222;SDS011;66218;48.928;9.140;2023-05-10T08:58:18;0.20;;;0.20;;
77222;SDS011;66218;48.928;9.140;2023-05-10T09:03:10;0.10;;;0.10;;
77222;SDS011;66218;48.928;9.140;2023-05-10T09:05:36;0.20;;;0.20;;
77222;SDS011;66218;48.928;9.140;2023-05-10T09:08:01;0.30;;;0.10;;
77222;SDS011;66218;48.928;9.140;2023-05-10T09:10:27;0.47;;;0.17;;
77222;SDS011;66218;48.928;9.140;2023-05-10T09:12:57;0.32;;;0.20;;
77222;SDS011;66218;48.928;9.140;2023-05-10T09:17:52;0.35;;;0.20;;
77222;SDS011;66218;48.928;9.140;2023-05-10T09:20:23;0.10;;;0.10;;
77222;SDS011;66218;48.928;9.140;2023-05-10T09:22:54;0.30;;;0.20;;
77222;SDS011;66218;48.928;9.140;2023-05-10T09:25:27;1.30;;;0.28;;
77222;SDS011;66218;48.928;9.140;2023-05-10T09:28:05;0.10;;;0.10;;
77222;SDS011;66218;48.928;9.140;2023-05-10T09:30:34;0.75;;;0.30;;
77222;SDS011;66218;48.928;9.140;2023-05-10T09:33:03;0.10;;;0.10;;
77222;SDS011;66218;48.928;9.140;2023-05-10T09:35:29;0.50;;;0.20;;
77222;SDS011;66218;48.928;9.140;2023-05-10T09:37:57;0.13;;;0.13;;
77222;SDS011;66218;48.928;9.140;2023-05-10T09:40:36;1.80;;;0.20;;
77222;SDS011;66218;48.928;9.140;2023-05-10T09:43:08;0.68;;;0.20;;
77222;SDS011;66218;48.928;9.140;2023-05-10T09:45:41;0.40;;;0.10;;
77222;SDS011;66218;48.928;9.140;2023-05-10T09:48:06;0.13;;;0.13;;
77222;SDS011;66218;48.928;9.140;2023-05-10T09:50:32;1.77;;;0.10;;
77222;SDS011;66218;48.928;9.140;2023-05-10T09:53:01;0.90;;;0.20;;
77222;SDS011;66218;48.928;9.140;2023-05-10T09:58:03;0.00;;;0.00;;
77222;SDS011;66218;48.928;9.140;2023-05-10T10:00:38;0.50;;;0.20;;
77222;SDS011;66218;48.928;9.140;2023-05-10T10:03:18;0.10;;;0.10;;
77222;SDS011;66218;48.928;9.140;2023-05-10T10:05:44;0.88;;;0.40;;
77222;SDS011;66218;48.928;9.140;2023-05-10T10:08:13;0.52;;;0.08;;
77222;SDS011;66218;48.928;9.140;2023-05-10T10:10:42;3.03;;;0.28;;
77222;SDS011;66218;48.928;9.140;2023-05-10T10:13:13;0.82;;;0.20;;
77222;SDS011;66218;48.928;9.140;2023-05-10T10:15:42;0.38;;;0.30;;
77222;SDS011;66218;48.928;9.140;2023-05-10T10:18:11;1.00;;;0.17;;
77222;SDS011;66218;48.928;9.140;2023-05-10T10:20:39;0.20;;;0.20;;
77222;SDS011;66218;48.928;9.140;2023-05-10T10:23:04;0.40;;;0.40;;
77222;SDS011;66218;48.928;9.140;2023-05-10T10:25:38;1.45;;;0.25;;
77222;SDS011;66218;48.928;9.140;2023-05-10T10:28:08;0.30;;;0.20;;
77222;SDS011;66218;48.928;9.140;2023-05-10T10:30:44;2.40;;;0.40;;
77222;SDS011;66218;48.928;9.140;2023-05-10T10:33:26;0.68;;;0.20;;
77222;SDS011;66218;48.928;9.140;2023-05-10T10:36:00;0.47;;;0.10;;
77222;SDS011;66218;48.928;9.140;2023-05-10T10:41:22;0.65;;;0.35;;
77222;SDS011;66218;48.928;9.140;2023-05-10T10:52:32;0.10;;;0.10;;
77222;SDS011;66218;48.928;9.140;2023-05-10T10:55:08;0.40;;;0.20;;
77222;SDS011;66218;48.928;9.140;2023-05-10T11:00:20;0.20;;;0.13;;
77222;SDS011;66218;48.928;9.140;2023-05-10T11:02:49;0.40;;;0.17;;
77222;SDS011;66218;48.928;9.140;2023-05-10T11:08:44;0.28;;;0.22;;
77222;SDS011;66218;48.928;9.140;2023-05-10T11:11:34;1.38;;;0.32;;
77222;SDS011;66218;48.928;9.140;2023-05-10T11:14:35;1.60;;;0.50;;
77222;SDS011;66218;48.928;9.140;2023-05-10T11:17:26;0.35;;;0.20;;
77222;SDS011;66218;48.928;9.140;2023-05-10T11:20:06;0.40;;;0.20;;
77222;SDS011;66218;48.928;9.140;2023-05-10T11:22:48;0.28;;;0.28;;
77222;SDS011;66218;48.928;9.140;2023-05-10T11:25:15;0.98;;;0.60;;
77222;SDS011;66218;48.928;9.140;2023-05-10T11:28:02;0.77;;;0.20;;
77222;SDS011;66218;48.928;9.140;2023-05-10T11:30:35;1.25;;;0.30;;
77222;SDS011;66218;48.928;9.140;2023-05-10T11:33:03;0.55;;;0.30;;
77222;SDS011;66218;48.928;9.140;2023-05-10T11:35:30;1.27;;;0.47;;
77222;SDS011;66218;48.928;9.140;2023-05-10T11:37:55;0.88;;;0.30;;
77222;SDS011;66218;48.928;9.140;2023-05-10T11:40:23;0.15;;;0.10;;
77222;SDS011;66218;48.928;9.140;2023-05-10T11:42:49;2.38;;;0.40;;
77222;SDS011;66218;48.928;9.140;2023-05-10T11:45:15;0.90;;;0.30;;
77222;SDS011;66218;48.928;9.140;2023-05-10T11:47:41;0.75;;;0.30;;
77222;SDS011;66218;48.928;9.140;2023-05-10T11:50:08;0.82;;;0.40;;
77222;SDS011;66218;48.928;9.140;2023-05-10T11:52:37;2.58;;;0.98;;
77222;SDS011;66218;48.928;9.140;2023-05-10T11:55:02;0.73;;;0.40;;
77222;SDS011;66218;48.928;9.140;2023-05-10T11:57:28;2.13;;;0.60;;
77222;SDS011;66218;48.928;9.140;2023-05-10T11:59:54;1.75;;;0.60;;
77222;SDS011;66218;48.928;9.140;2023-05-10T12:02:21;3.70;;;0.70;;
77222;SDS011;66218;48.928;9.140;2023-05-10T12:04:46;1.33;;;0.60;;
77222;SDS011;66218;48.928;9.140;2023-05-10T12:07:12;2.47;;;0.50;;
77222;SDS011;66218;48.928;9.140;2023-05-10T12:09:37;2.42;;;0.50;;
77222;SDS011;66218;48.928;9.140;2023-05-10T12:12:08;3.25;;;0.75;;
77222;SDS011;66218;48.928;9.140;2023-05-10T12:14:36;2.30;;;0.47;;
77222;SDS011;66218;48.928;9.140;2023-05-10T12:17:02;1.92;;;0.60;;
77222;SDS011;66218;48.928;9.140;2023-05-10T12:19:27;0.68;;;0.45;;
77222;SDS011;66218;48.928;9.140;2023-05-10T12:21:52;1.30;;;0.32;;
77222;SDS011;66218;48.928;9.140;2023-05-10T12:24:18;1.40;;;0.63;;
77222;SDS011;66218;48.928;9.140;2023-05-10T12:26:45;0.52;;;0.43;;
77222;SDS011;66218;48.928;9.140;2023-05-10T12:29:19;1.00;;;0.32;;
77222;SDS011;66218;48.928;9.140;2023-05-10T12:31:58;1.13;;;0.40;;
77222;SDS011;66218;48.928;9.140;2023-05-10T12:34:31;4.43;;;0.50;;
77222;SDS011;66218;48.928;9.140;2023-05-10T12:36:58;0.65;;;0.40;;
77222;SDS011;66218;48.928;9.140;2023-05-10T12:39:23;0.20;;;0.20;;
77222;SDS011;66218;48.928;9.140;2023-05-10T12:41:50;0.22;;;0.15;;
77222;SDS011;66218;48.928;9.140;2023-05-10T12:44:15;1.52;;;0.50;;
77222;SDS011;66218;48.928;9.140;2023-05-10T12:49:07;2.43;;;0.50;;
77222;SDS011;66218;48.928;9.140;2023-05-10T12:51:32;2.20;;;0.30;;
77222;SDS011;66218;48.928;9.140;2023-05-10T12:53:57;0.43;;;0.30;;
77222;SDS011;66218;48.928;9.140;2023-05-10T12:56:23;0.22;;;0.22;;
77222;SDS011;66218;48.928;9.140;2023-05-10T12:58:48;0.60;;;0.40;;
77222;SDS011;66218;48.928;9.140;2023-05-10T13:01:14;2.15;;;0.40;;
77222;SDS011;66218;48.928;9.140;2023-05-10T13:03:39;0.20;;;0.20;;
77222;SDS011;66218;48.928;9.140;2023-05-10T13:06:05;0.20;;;0.20;;
77222;SDS011;66218;48.928;9.140;2023-05-10T13:08:31;2.25;;;0.20;;
77222;SDS011;66218;48.928;9.140;2023-05-10T13:10:58;2.50;;;0.38;;
77222;SDS011;66218;48.928;9.140;2023-05-10T13:13:24;1.55;;;0.30;;
77222;SDS011;66218;48.928;9.140;2023-05-10T13:15:49;1.75;;;0.40;;
77222;SDS011;66218;48.928;9.140;2023-05-10T13:18:15;0.35;;;0.20;;
77222;SDS011;66218;48.928;9.140;2023-05-10T13:20:40;0.20;;;0.20;;
77222;SDS011;66218;48.928;9.140;2023-05-10T13:23:05;0.10;;;0.10;;
77222;SDS011;66218;48.928;9.140;2023-05-10T13:25:31;0.50;;;0.20;;
77222;SDS011;66218;48.928;9.140;2023-05-10T13:27:56;3.47;;;0.30;;
77222;SDS011;66218;48.928;9.140;2023-05-10T13:30:22;1.55;;;0.20;;
77222;SDS011;66218;48.928;9.140;2023-05-10T13:32:48;1.38;;;0.50;;
77222;SDS011;66218;48.928;9.140;2023-05-10T13:35:14;0.52;;;0.35;;
77222;SDS011;66218;48.928;9.140;2023-05-10T13:37:39;0.90;;;0.43;;
77222;SDS011;66218;48.928;9.140;2023-05-10T13:40:05;2.78;;;0.40;;
77222;SDS011;66218;48.928;9.140;2023-05-10T13:42:31;0.95;;;0.43;;
77222;SDS011;66218;48.928;9.140;2023-05-10T13:44:58;0.45;;;0.20;;
77222;SDS011;66218;48.928;9.140;2023-05-10T13:47:23;1.50;;;0.40;;
77222;SDS011;66218;48.928;9.140;2023-05-10T13:49:49;2.85;;;0.50;;
77222;SDS011;66218;48.928;9.140;2023-05-10T13:52:14;1.65;;;0.40;;
77222;SDS011;66218;48.928;9.140;2023-05-10T13:54:39;1.52;;;0.30;;
77222;SDS011;66218;48.928;9.140;2023-05-10T13:57:05;1.35;;;0.20;;
77222;SDS011;66218;48.928;9.140;2023-05-10T13:59:31;2.22;;;0.38;;
77222;SDS011;66218;48.928;9.140;2023-05-10T14:01:57;0.25;;;0.17;;
77222;SDS011;66218;48.928;9.140;2023-05-10T14:06:48;1.55;;;0.20;;
77222;SDS011;66218;48.928;9.140;2023-05-10T14:09:14;0.47;;;0.40;;
77222;SDS011;66218;48.928;9.140;2023-05-10T14:11:39;0.70;;;0.20;;
77222;SDS011;66218;48.928;9.140;2023-05-10T14:14:08;0.68;;;0.50;;
77222;SDS011;66218;48.928;9.140;2023-05-10T14:16:33;0.20;;;0.20;;
77222;SDS011;66218;48.928;9.140;2023-05-10T14:18:59;4.18;;;0.38;;
77222;SDS011;66218;48.928;9.140;2023-05-10T14:21:24;0.93;;;0.40;;
77222;SDS011;66218;48.928;9.140;2023-05-10T14:23:50;0.63;;;0.40;;
77222;SDS011;66218;48.928;9.140;2023-05-10T14:26:15;0.55;;;0.30;;
77222;SDS011;66218;48.928;9.140;2023-05-10T14:28:41;0.22;;;0.22;;
77222;SDS011;66218;48.928;9.140;2023-05-10T14:31:06;0.32;;;0.25;;
77222;SDS011;66218;48.928;9.140;2023-05-10T14:33:32;1.90;;;0.38;;
77222;SDS011;66218;48.928;9.140;2023-05-10T14:35:57;0.20;;;0.20;;
77222;SDS011;66218;48.928;9.140;2023-05-10T14:38:22;1.23;;;0.40;;
77222;SDS011;66218;48.928;9.140;2023-05-10T14:40:48;0.10;;;0.10;;
77222;SDS011;66218;48.928;9.140;2023-05-10T14:43:14;1.90;;;0.30;;
77222;SDS011;66218;48.928;9.140;2023-05-10T14:45:39;0.75;;;0.30;;
77222;SDS011;66218;48.928;9.140;2023-05-10T14:48:05;1.92;;;0.32;;
77222;SDS011;66218;48.928;9.140;2023-05-10T14:50:30;1.02;;;0.43;;
77222;SDS011;66218;48.928;9.140;2023-05-10T14:55:22;0.28;;;0.17;;
77222;SDS011;66218;48.928;9.140;2023-05-10T14:57:47;0.40;;;0.20;;
77222;SDS011;66218;48.928;9.140;2023-05-10T15:00:15;2.88;;;0.20;;
77222;SDS011;66218;48.928;9.140;2023-05-10T15:02:40;0.40;;;0.30;;
77222;SDS011;66218;48.928;9.140;2023-05-10T15:05:06;0.85;;;0.43;;
77222;SDS011;66218;48.928;9.140;2023-05-10T15:07:32;0.30;;;0.28;;
77222;SDS011;66218;48.928;9.140;2023-05-10T15:09:57;0.35;;;0.20;;
77222;SDS011;66218;48.928;9.140;2023-05-10T15:12:22;1.40;;;0.30;;
77222;SDS011;66218;48.928;9.140;2023-05-10T15:14:48;2.28;;;0.40;;
77222;SDS011;66218;48.928;9.140;2023-05-10T15:17:13;1.95;;;0.40;;
77222;SDS011;66218;48.928;9.140;2023-05-10T15:19:38;0.95;;;0.50;;
77222;SDS011;66218;48.928;9.140;2023-05-10T15:22:04;0.20;;;0.20;;
77222;SDS011;66218;48.928;9.140;2023-05-10T15:24:30;0.30;;;0.17;;
77222;SDS011;66218;48.928;9.140;2023-05-10T15:26:56;0.17;;;0.13;;
77222;SDS011;66218;48.928;9.140;2023-05-10T15:29:21;0.32;;;0.30;;
77222;SDS011;66218;48.928;9.140;2023-05-10T15:31:46;0.20;;;0.20;;
77222;SDS011;66218;48.928;9.140;2023-05-10T15:34:13;0.32;;;0.20;;
77222;SDS011;66218;48.928;9.140;2023-05-10T15:36:38;1.73;;;0.50;;
77222;SDS011;66218;48.928;9.140;2023-05-10T15:39:04;0.52;;;0.30;;
77222;SDS011;66218;48.928;9.140;2023-05-10T15:41:29;0.30;;;0.30;;
77222;SDS011;66218;48.928;9.140;2023-05-10T15:43:55;0.68;;;0.25;;
77222;SDS011;66218;48.928;9.140;2023-05-10T15:46:20;0.25;;;0.25;;
77222;SDS011;66218;48.928;9.140;2023-05-10T15:48:46;1.65;;;0.20;;
77222;SDS011;66218;48.928;9.140;2023-05-10T15:51:11;0.10;;;0.10;;
77222;SDS011;66218;48.928;9.140;2023-05-10T15:53:37;0.17;;;0.15;;
77222;SDS011;66218;48.928;9.140;2023-05-10T15:56:02;0.68;;;0.25;;
77222;SDS011;66218;48.928;9.140;2023-05-10T15:58:28;1.85;;;0.20;;
77222;SDS011;66218;48.928;9.140;2023-05-10T16:00:53;0.28;;;0.22;;